Star Martha — V7TY3 — position and weather

sailwx.info

Track history (hours):
 
Tides and Currents Weather Stations Pressure Air Temp Water Temp Dewpoint Dewpoint Depression Visibility Wind Speed Wind Dir Waves Ship Positions

Star Martha

Last reported at 2018-Jun-15 20:17 UTC. Time now 2018-Jun-17 22:11 UTC.
Position N 01°25' E 103°13'.

Length 289 m; draft 10.4 m.

Type: Cargo ship. MMSI: 538003904.

Date/timePositionNaut miles runAvg speedWind from/ knotsBaromVisibWave heightAir tempDewpointWater temp
2018-Jun-15 20:17N 01°25' E 103°13'814.1
2018-Jun-15 19:43N 01°20' E 103°19'313.4
2018-Jun-15 19:30N 01°18' E 103°21'712.7
2018-Jun-15 18:59N 01°14' E 103°27'611.9
2018-Jun-15 18:30N 01°13' E 103°32'611.9
2018-Jun-15 18:00N 01°11' E 103°38'611.2
2018-Jun-15 17:30N 01°09' E 103°43'510.5
2018-Jun-15 17:00N 01°10' E 103°48'611.5
2018-Jun-15 16:30N 01°13' E 103°53'4 8.2
2018-Jun-15 16:00N 01°15' E 103°57'5 8.6
2018-Jun-15 15:28N 01°16' E 104°01'1 1.7
2018-Jun-15 15:00N 01°17' E 104°01'0 0.2
2018-Jun-15 14:18N 01°17' E 104°01'0 0.0
2018-Jun-15 13:57N 01°17' E 104°01'0 0.0
2018-Jun-15 13:30N 01°17' E 104°01'0 0.1
2018-Jun-15 12:59N 01°17' E 104°01'0 0.0
2018-Jun-15 12:29N 01°17' E 104°01'0 0.0
2018-Jun-15 11:59N 01°17' E 104°01'0 0.0
2018-Jun-15 11:29N 01°17' E 104°01'0 0.0
2018-Jun-15 10:56N 01°17' E 104°01'0 0.0
2018-Jun-15 10:30N 01°17' E 104°01'0 0.0
2018-Jun-15 09:59N 01°17' E 104°01'0 0.1
2018-Jun-15 09:12N 01°17' E 104°01'0 0.2
2018-Jun-15 08:56N 01°17' E 104°01'0 0.0
2018-Jun-15 08:23N 01°17' E 104°01'0 0.1
2018-Jun-15 07:56N 01°17' E 104°01'0 0.0
2018-Jun-15 07:23N 01°17' E 104°01'0 0.0
2018-Jun-15 06:59N 01°17' E 104°01'0 0.0
2018-Jun-15 06:23N 01°17' E 104°01'0 0.2
2018-Jun-15 06:00N 01°17' E 104°01'0 0.1
2018-Jun-15 05:29N 01°17' E 104°01'0 0.1
2018-Jun-15 04:41N 01°17' E 104°01'0 0.2
2018-Jun-15 04:20N 01°17' E 104°01'0 0.0
2018-Jun-15 03:59N 01°17' E 104°01'0 0.5
2018-Jun-15 03:23N 01°17' E 104°02'0 0.2
2018-Jun-15 02:59N 01°17' E 104°02'0 0.4
2018-Jun-15 02:26N 01°17' E 104°02'0 0.1
2018-Jun-15 02:00N 01°17' E 104°02'0 0.3
2018-Jun-15 01:26N 01°17' E 104°02'1 1.6
2018-Jun-15 01:00N 01°17' E 104°01'3 6.1
2018-Jun-15 00:30N 01°16' E 103°58'0 0.8
2018-Jun-15 00:00N 01°16' E 103°59'3 5.1
2018-Jun-14 23:30N 01°16' E 104°01'4 7.6
2018-Jun-14 23:00N 01°16' E 104°05'4 7.5
2018-Jun-14 22:29N 01°17' E 104°09'510.6
2018-Jun-14 22:00N 01°18' E 104°14'711.5
2018-Jun-14 21:26N 01°19' E 104°20'510.9
2018-Jun-14 21:00N 01°22' E 104°24'610.5
2018-Jun-14 20:25N 01°26' E 104°28'  
Track history (hours):
 
Tides and Currents Weather Stations Pressure Air Temp Water Temp Dewpoint Dewpoint Depression Visibility Wind Speed Wind Dir Waves Ship Positions

Star Martha

Last reported at 2018-Jun-15 20:17 UTC. Time now 2018-Jun-17 22:11 UTC.
Position N 01°25' E 103°13'.

Length 289 m; draft 10.4 m.

Type: Cargo ship. MMSI: 538003904.

Date/timePositionNaut miles runAvg speedWind from/ knotsBaromVisibWave heightAir tempDewpointWater temp
2018-Jun-15 20:17N 01°25' E 103°13'814.1
2018-Jun-15 19:43N 01°20' E 103°19'313.4
2018-Jun-15 19:30N 01°18' E 103°21'712.7
2018-Jun-15 18:59N 01°14' E 103°27'611.9
2018-Jun-15 18:30N 01°13' E 103°32'611.9
2018-Jun-15 18:00N 01°11' E 103°38'611.2
2018-Jun-15 17:30N 01°09' E 103°43'510.5
2018-Jun-15 17:00N 01°10' E 103°48'611.5
2018-Jun-15 16:30N 01°13' E 103°53'4 8.2
2018-Jun-15 16:00N 01°15' E 103°57'5 8.6
2018-Jun-15 15:28N 01°16' E 104°01'1 1.7
2018-Jun-15 15:00N 01°17' E 104°01'0 0.2
2018-Jun-15 14:18N 01°17' E 104°01'0 0.0
2018-Jun-15 13:57N 01°17' E 104°01'0 0.0
2018-Jun-15 13:30N 01°17' E 104°01'0 0.1
2018-Jun-15 12:59N 01°17' E 104°01'0 0.0
2018-Jun-15 12:29N 01°17' E 104°01'0 0.0
2018-Jun-15 11:59N 01°17' E 104°01'0 0.0
2018-Jun-15 11:29N 01°17' E 104°01'0 0.0
2018-Jun-15 10:56N 01°17' E 104°01'0 0.0
2018-Jun-15 10:30N 01°17' E 104°01'0 0.0
2018-Jun-15 09:59N 01°17' E 104°01'0 0.1
2018-Jun-15 09:12N 01°17' E 104°01'0 0.2
2018-Jun-15 08:56N 01°17' E 104°01'0 0.0
2018-Jun-15 08:23N 01°17' E 104°01'0 0.1
2018-Jun-15 07:56N 01°17' E 104°01'0 0.0
2018-Jun-15 07:23N 01°17' E 104°01'0 0.0
2018-Jun-15 06:59N 01°17' E 104°01'0 0.0
2018-Jun-15 06:23N 01°17' E 104°01'0 0.2
2018-Jun-15 06:00N 01°17' E 104°01'0 0.1
2018-Jun-15 05:29N 01°17' E 104°01'0 0.1
2018-Jun-15 04:41N 01°17' E 104°01'0 0.2
2018-Jun-15 04:20N 01°17' E 104°01'0 0.0
2018-Jun-15 03:59N 01°17' E 104°01'0 0.5
2018-Jun-15 03:23N 01°17' E 104°02'0 0.2
2018-Jun-15 02:59N 01°17' E 104°02'0 0.4
2018-Jun-15 02:26N 01°17' E 104°02'0 0.1
2018-Jun-15 02:00N 01°17' E 104°02'0 0.3
2018-Jun-15 01:26N 01°17' E 104°02'1 1.6
2018-Jun-15 01:00N 01°17' E 104°01'3 6.1
2018-Jun-15 00:30N 01°16' E 103°58'0 0.8
2018-Jun-15 00:00N 01°16' E 103°59'3 5.1
2018-Jun-14 23:30N 01°16' E 104°01'4 7.6
2018-Jun-14 23:00N 01°16' E 104°05'4 7.5
2018-Jun-14 22:29N 01°17' E 104°09'510.6
2018-Jun-14 22:00N 01°18' E 104°14'711.5
2018-Jun-14 21:26N 01°19' E 104°20'510.9
2018-Jun-14 21:00N 01°22' E 104°24'610.5
2018-Jun-14 20:25N 01°26' E 104°28'  

Dump ship's entire track history